createdAt,value
2023-02-06T15:37:57.631Z,3.60
2023-02-06T15:38:57.642Z,3.10
2023-02-06T15:39:57.638Z,3.90
2023-02-06T15:40:57.632Z,3.70
2023-02-06T15:41:57.638Z,4.00
2023-02-06T15:42:57.606Z,4.10
2023-02-06T15:43:57.645Z,4.30
2023-02-06T15:44:57.579Z,4.00
2023-02-06T15:45:57.662Z,4.30
2023-02-06T15:46:57.668Z,4.40
2023-02-06T15:47:57.552Z,4.70
2023-02-06T15:48:57.845Z,4.30
2023-02-06T15:49:57.519Z,4.00
2023-02-06T15:50:57.519Z,4.30
2023-02-06T15:51:57.511Z,4.40
2023-02-06T15:52:57.499Z,4.20
2023-02-06T15:53:57.490Z,4.60
2023-02-06T15:54:57.490Z,4.50
2023-02-06T15:55:57.457Z,4.30
2023-02-06T15:56:57.495Z,4.50
2023-02-06T15:57:57.462Z,4.80
2023-02-06T15:58:57.422Z,4.10
2023-02-06T15:59:57.450Z,4.60
2023-02-06T16:00:57.478Z,4.30
2023-02-06T16:01:57.503Z,4.20
2023-02-06T16:02:57.407Z,3.50
2023-02-06T16:03:57.403Z,4.90
2023-02-06T16:04:57.377Z,4.20
2023-02-06T16:05:57.366Z,4.00
2023-02-06T16:06:57.340Z,4.50
2023-02-06T16:07:57.348Z,5.20
2023-02-06T16:08:57.334Z,4.70
2023-02-06T16:09:57.331Z,4.80
2023-02-06T16:10:57.317Z,4.90
2023-02-06T16:11:57.308Z,4.40
2023-02-06T16:12:57.292Z,4.00
2023-02-06T16:13:57.656Z,4.30
2023-02-06T16:14:57.416Z,4.40
2023-02-06T16:15:57.238Z,4.80
2023-02-06T16:16:57.337Z,4.80
2023-02-06T16:17:57.242Z,5.00
2023-02-06T16:18:57.266Z,5.10
2023-02-06T16:19:57.192Z,4.50
2023-02-06T16:20:57.205Z,4.70
2023-02-06T16:21:57.200Z,4.60
2023-02-06T16:22:57.205Z,4.00
2023-02-06T16:23:57.191Z,4.40
2023-02-06T16:24:57.229Z,4.50
2023-02-06T16:25:57.131Z,4.80
2023-02-06T16:26:57.165Z,4.30
2023-02-06T16:27:57.171Z,4.20
2023-02-06T16:28:57.162Z,4.50
2023-02-06T16:29:57.088Z,4.10
2023-02-06T16:30:57.141Z,4.10
2023-02-06T16:31:57.153Z,4.80
2023-02-06T16:32:57.075Z,4.60
2023-02-06T16:33:57.071Z,4.90
2023-02-06T16:34:57.049Z,4.90
2023-02-06T16:35:57.019Z,4.30
2023-02-06T16:36:56.996Z,4.50
2023-02-06T16:37:56.992Z,4.50
2023-02-06T16:39:03.720Z,4.30
2023-02-06T16:39:56.981Z,4.50
2023-02-06T16:40:56.974Z,4.30
2023-02-06T16:41:56.987Z,4.30
2023-02-06T16:42:56.964Z,4.20
2023-02-06T16:43:57.082Z,4.50
2023-02-06T16:44:56.993Z,4.50
2023-02-06T16:45:57.536Z,4.30
2023-02-06T16:47:05.133Z,4.30
2023-02-06T16:47:57.023Z,4.10
2023-02-06T16:48:56.897Z,4.40
2023-02-06T16:49:56.859Z,4.70
2023-02-06T16:50:56.854Z,4.40
2023-02-06T16:51:56.835Z,4.50
2023-02-06T16:52:56.822Z,4.30
2023-02-06T16:53:56.816Z,4.30
2023-02-06T16:54:56.805Z,4.40
2023-02-06T16:55:56.820Z,4.80
2023-02-06T16:56:56.792Z,4.70
2023-02-06T16:57:56.781Z,4.80
2023-02-06T16:58:56.789Z,5.20
2023-02-06T16:59:56.814Z,4.40
2023-02-06T17:00:56.782Z,4.60
2023-02-06T17:01:56.735Z,4.50
2023-02-06T17:02:56.706Z,5.20
2023-02-06T17:03:56.715Z,5.00
2023-02-06T17:04:56.825Z,4.90
2023-02-06T17:05:56.675Z,5.20
2023-02-06T17:06:56.673Z,4.50
2023-02-06T17:07:56.650Z,4.50
2023-02-06T17:08:56.667Z,4.80
2023-02-06T17:09:56.639Z,4.60
2023-02-06T17:10:56.719Z,4.40
2023-02-06T17:11:56.654Z,4.80
2023-02-06T17:12:57.187Z,5.10
2023-02-06T17:13:56.637Z,4.50
2023-02-06T17:14:56.616Z,4.90
2023-02-06T17:15:56.647Z,4.70
2023-02-06T17:16:56.573Z,4.60
2023-02-06T17:17:56.549Z,4.50
2023-02-06T17:18:56.566Z,4.50
2023-02-06T17:19:56.571Z,4.70
2023-02-06T17:20:56.627Z,4.80
2023-02-06T17:21:56.505Z,5.00
2023-02-06T17:22:56.537Z,4.60
2023-02-06T17:23:56.500Z,4.80
2023-02-06T17:24:56.487Z,5.20
2023-02-06T17:25:56.536Z,5.60
2023-02-06T17:26:56.462Z,5.00
2023-02-06T17:27:57.231Z,4.30
2023-02-06T17:28:56.450Z,4.50
2023-02-06T17:29:56.440Z,5.30
2023-02-06T17:30:56.553Z,4.10
2023-02-06T17:31:56.452Z,4.20
2023-02-06T17:32:56.415Z,4.60
2023-02-06T17:33:57.197Z,4.50
2023-02-06T17:34:56.395Z,4.20
2023-02-06T17:35:56.433Z,4.40
2023-02-06T17:36:56.362Z,4.40
2023-02-06T17:37:56.343Z,4.50
2023-02-06T17:38:56.339Z,4.50
2023-02-06T17:39:56.356Z,4.90
2023-02-06T17:40:56.329Z,4.40
2023-02-06T17:41:56.338Z,4.80
2023-02-06T17:42:56.280Z,4.40
2023-02-06T17:43:56.272Z,5.00
2023-02-06T17:44:56.342Z,4.60
2023-02-06T17:45:56.362Z,5.10
2023-02-06T17:46:56.379Z,4.80
2023-02-06T17:47:56.252Z,4.20
2023-02-06T17:48:56.221Z,4.60
2023-02-06T17:49:56.269Z,4.80
2023-02-06T17:50:56.227Z,4.80
2023-02-06T17:51:56.196Z,4.60
2023-02-06T17:52:56.217Z,4.10
2023-02-06T17:53:56.550Z,4.70
2023-02-06T17:54:56.224Z,4.90
2023-02-06T17:55:56.171Z,4.20
2023-02-06T17:56:56.166Z,4.50
2023-02-06T17:57:56.165Z,5.00
2023-02-06T17:58:56.130Z,4.90
2023-02-06T17:59:56.154Z,4.40
2023-02-06T18:00:56.149Z,4.90
2023-02-06T18:01:56.156Z,4.80
2023-02-06T18:02:56.117Z,4.30
2023-02-06T18:03:56.073Z,4.50
2023-02-06T18:04:56.103Z,4.40
2023-02-06T18:05:56.183Z,4.60
2023-02-06T18:06:56.044Z,4.90
2023-02-06T18:07:56.012Z,4.90
2023-02-06T18:08:55.994Z,4.90
2023-02-06T18:09:56.016Z,5.20
2023-02-06T18:10:56.021Z,4.60
2023-02-06T18:11:55.972Z,5.40
2023-02-06T18:12:55.990Z,4.50
2023-02-06T18:13:56.048Z,4.70
2023-02-06T18:14:55.978Z,5.40
2023-02-06T18:15:56.107Z,5.60
2023-02-06T18:16:55.917Z,5.00
2023-02-06T18:17:58.925Z,4.90
2023-02-06T18:18:56.739Z,5.20
2023-02-06T18:19:58.156Z,4.80
2023-02-06T18:20:55.862Z,5.50
2023-02-06T18:21:55.864Z,5.00
2023-02-06T18:22:55.834Z,5.20
2023-02-06T18:23:55.861Z,5.10
2023-02-06T18:24:55.815Z,4.70
2023-02-06T18:25:56.572Z,5.40
2023-02-06T18:26:56.698Z,5.70
2023-02-06T18:27:55.840Z,5.00
2023-02-06T18:28:55.810Z,5.10
2023-02-06T18:29:55.860Z,5.40
2023-02-06T18:30:55.836Z,5.40
2023-02-06T18:31:55.875Z,5.50
2023-02-06T18:32:55.734Z,5.00
2023-02-06T18:33:55.764Z,5.20
2023-02-06T18:34:55.768Z,4.60
2023-02-06T18:35:55.793Z,5.70
2023-02-06T18:36:55.680Z,5.80
2023-02-06T18:37:55.680Z,5.70
2023-02-06T18:38:55.711Z,5.90
2023-02-06T18:39:55.724Z,6.20
2023-02-06T18:40:55.670Z,6.10
2023-02-06T18:41:55.636Z,5.40
2023-02-06T18:42:55.667Z,5.70
2023-02-06T18:43:55.671Z,5.60
2023-02-06T18:44:55.600Z,5.80
2023-02-06T18:45:55.605Z,6.60
2023-02-06T18:46:55.612Z,6.10
2023-02-06T18:47:55.571Z,5.80
2023-02-06T18:48:55.557Z,5.70
2023-02-06T18:49:55.627Z,6.40
2023-02-06T18:50:57.531Z,5.80
2023-02-06T18:51:55.520Z,5.90
2023-02-06T18:52:55.524Z,6.00
2023-02-06T18:53:55.510Z,6.70
2023-02-06T18:54:55.621Z,6.50
2023-02-06T18:55:55.511Z,6.70
2023-02-06T18:56:55.511Z,6.20
2023-02-06T18:57:55.456Z,5.90
2023-02-06T18:58:55.434Z,5.70
2023-02-06T18:59:55.424Z,5.50
2023-02-06T19:00:55.476Z,5.90
2023-02-06T19:01:55.502Z,6.00
2023-02-06T19:02:55.401Z,6.10
2023-02-06T19:03:55.444Z,5.70
2023-02-06T19:04:55.381Z,5.90
2023-02-06T19:05:55.418Z,5.70
2023-02-06T19:06:55.377Z,5.90
2023-02-06T19:07:55.373Z,5.90
2023-02-06T19:08:56.126Z,5.80
2023-02-06T19:09:55.369Z,5.60
2023-02-06T19:10:55.330Z,5.80
2023-02-06T19:11:55.302Z,5.90
2023-02-06T19:12:55.318Z,5.70
2023-02-06T19:13:55.350Z,5.70
2023-02-06T19:14:55.273Z,5.60
2023-02-06T19:15:55.341Z,5.90
2023-02-06T19:16:55.320Z,6.50
2023-02-06T19:17:55.249Z,6.20
2023-02-06T19:18:55.226Z,6.10
2023-02-06T19:19:55.522Z,5.90
2023-02-06T19:20:55.240Z,5.80
2023-02-06T19:21:55.253Z,6.20
2023-02-06T19:22:55.208Z,5.90
2023-02-06T19:23:55.193Z,6.30
2023-02-06T19:24:55.188Z,6.50
2023-02-06T19:25:55.318Z,6.10
2023-02-06T19:26:55.167Z,6.50
2023-02-06T19:27:55.231Z,7.40
2023-02-06T19:28:55.125Z,6.00
2023-02-06T19:29:55.263Z,6.10
2023-02-06T19:30:55.197Z,6.40
2023-02-06T19:31:55.230Z,6.30
2023-02-06T19:32:55.070Z,6.60
2023-02-06T19:33:55.095Z,6.80
2023-02-06T19:34:55.120Z,6.70
2023-02-06T19:35:55.100Z,6.40
2023-02-06T19:36:55.107Z,6.30
2023-02-06T19:37:55.610Z,6.10
2023-02-06T19:38:55.215Z,6.50
2023-02-06T19:39:55.011Z,6.80
2023-02-06T19:40:55.035Z,6.80
2023-02-06T19:41:55.160Z,6.50
2023-02-06T19:42:54.958Z,7.10
2023-02-06T19:43:55.005Z,6.40
2023-02-06T19:44:54.940Z,6.80
2023-02-06T19:45:55.014Z,6.80
2023-02-06T19:46:54.954Z,6.80
2023-02-06T19:47:54.955Z,6.40
2023-02-06T19:48:54.934Z,6.30
2023-02-06T19:49:54.922Z,6.20
2023-02-06T19:50:54.888Z,6.50
2023-02-06T19:51:55.657Z,6.30
2023-02-06T19:52:54.880Z,6.30
2023-02-06T19:53:54.886Z,7.10
2023-02-06T19:54:54.873Z,6.50
2023-02-06T19:55:54.905Z,7.10
2023-02-06T19:56:54.848Z,6.80
2023-02-06T19:57:54.827Z,7.00
2023-02-06T19:58:54.958Z,7.00
2023-02-06T19:59:54.771Z,6.80
2023-02-06T20:00:54.830Z,7.20
2023-02-06T20:01:54.783Z,7.20
2023-02-06T20:02:54.771Z,6.90
2023-02-06T20:03:54.759Z,6.70
2023-02-06T20:04:54.760Z,6.50
2023-02-06T20:05:54.757Z,7.80
2023-02-06T20:06:54.770Z,7.60
2023-02-06T20:07:54.755Z,8.80
2023-02-06T20:08:54.730Z,7.20
2023-02-06T20:09:54.692Z,7.20
2023-02-06T20:10:55.553Z,7.90
2023-02-06T20:11:54.659Z,7.10
2023-02-06T20:12:54.671Z,7.30
2023-02-06T20:13:54.641Z,8.00
2023-02-06T20:14:54.641Z,7.40
2023-02-06T20:15:54.642Z,7.90
2023-02-06T20:16:54.852Z,8.10
2023-02-06T20:17:54.582Z,8.60
2023-02-06T20:18:54.580Z,9.50
2023-02-06T20:19:55.799Z,8.90
2023-02-06T20:20:54.561Z,7.10
2023-02-06T20:21:54.561Z,7.60
2023-02-06T20:22:54.520Z,7.10
2023-02-06T20:23:54.521Z,8.20
2023-02-06T20:24:54.504Z,7.50
2023-02-06T20:25:54.506Z,7.20
2023-02-06T20:26:55.888Z,7.60
2023-02-06T20:27:54.503Z,7.80
2023-02-06T20:28:54.554Z,7.40
2023-02-06T20:29:54.500Z,6.90
2023-02-06T20:30:54.520Z,7.30
2023-02-06T20:31:54.691Z,7.00
2023-02-06T20:32:54.452Z,7.80
2023-02-06T20:33:54.577Z,7.40
2023-02-06T20:34:54.399Z,7.30
2023-02-06T20:35:54.390Z,7.40
2023-02-06T20:36:54.427Z,6.50
2023-02-06T20:37:54.399Z,7.10
2023-02-06T20:38:54.363Z,7.30
2023-02-06T20:39:54.359Z,7.40
2023-02-06T20:40:54.334Z,7.10
2023-02-06T20:41:54.411Z,7.40
2023-02-06T20:42:54.317Z,6.80
2023-02-06T20:43:54.448Z,7.80
2023-02-06T20:44:54.330Z,7.20
2023-02-06T20:45:54.312Z,7.40
2023-02-06T20:46:54.555Z,7.50
2023-02-06T20:47:54.268Z,8.20
2023-02-06T20:48:54.411Z,6.90
2023-02-06T20:49:54.274Z,7.40
2023-02-06T20:50:54.221Z,7.90
2023-02-06T20:51:54.279Z,6.90
2023-02-06T20:52:54.212Z,7.90
2023-02-06T20:53:54.217Z,7.90
2023-02-06T20:54:54.253Z,7.70
2023-02-06T20:55:54.201Z,7.70
2023-02-06T20:56:54.170Z,8.00
2023-02-06T20:57:54.162Z,7.00
2023-02-06T20:58:54.144Z,7.70
2023-02-06T20:59:54.248Z,8.00
2023-02-06T21:00:54.158Z,7.60
2023-02-06T21:01:54.142Z,7.70
2023-02-06T21:02:54.147Z,7.30
2023-02-06T21:03:54.076Z,7.60
2023-02-06T21:04:54.106Z,7.60
2023-02-06T21:05:54.059Z,7.80
2023-02-06T21:06:54.056Z,7.80
2023-02-06T21:07:55.250Z,7.90
2023-02-06T21:08:54.016Z,7.50
2023-02-06T21:09:54.017Z,8.40
2023-02-06T21:10:54.036Z,7.70
2023-02-06T21:11:54.031Z,7.40
2023-02-06T21:12:53.986Z,8.00
2023-02-06T21:13:53.965Z,8.00
2023-02-06T21:14:54.063Z,7.70
2023-02-06T21:15:53.966Z,7.80
2023-02-06T21:16:53.966Z,8.60
2023-02-06T21:17:53.929Z,7.70
2023-02-06T21:18:53.907Z,7.60
2023-02-06T21:19:53.903Z,8.00
2023-02-06T21:20:53.908Z,8.00
2023-02-06T21:21:53.915Z,7.30
2023-02-06T21:22:53.896Z,7.40
2023-02-06T21:23:53.859Z,8.20
2023-02-06T21:24:53.852Z,7.80
2023-02-06T21:25:53.868Z,8.10
2023-02-06T21:26:53.842Z,7.80
2023-02-06T21:27:53.872Z,7.30
2023-02-06T21:28:53.833Z,7.40
2023-02-06T21:29:53.821Z,8.40
2023-02-06T21:30:53.886Z,7.70
2023-02-06T21:32:07.232Z,8.70
2023-02-06T21:32:53.784Z,7.80
2023-02-06T21:33:53.754Z,13.80
2023-02-06T21:34:53.736Z,11.10
2023-02-06T21:35:53.850Z,8.70
2023-02-06T21:36:53.715Z,9.40
2023-02-06T21:37:53.721Z,8.40
2023-02-06T21:38:53.702Z,8.20
2023-02-06T21:39:53.709Z,8.50
2023-02-06T21:40:53.677Z,8.40
2023-02-06T21:41:53.783Z,8.50
2023-02-06T21:42:53.669Z,8.20
2023-02-06T21:43:53.648Z,7.40
2023-02-06T21:44:53.682Z,8.50
2023-02-06T21:45:54.027Z,9.00
2023-02-06T21:46:53.628Z,8.50
2023-02-06T21:47:53.621Z,8.30
2023-02-06T21:48:53.587Z,8.50
2023-02-06T21:49:53.624Z,9.30
2023-02-06T21:50:53.650Z,8.80
2023-02-06T21:51:53.624Z,8.40
2023-02-06T21:52:53.614Z,8.10
2023-02-06T21:53:53.555Z,8.10
2023-02-06T21:54:53.551Z,8.20
2023-02-06T21:55:53.576Z,8.30
2023-02-06T21:56:53.526Z,8.80
2023-02-06T21:57:53.518Z,8.20
2023-02-06T21:58:53.480Z,8.00
2023-02-06T21:59:53.482Z,9.00
2023-02-06T22:00:53.464Z,8.10
2023-02-06T22:01:53.478Z,8.30
2023-02-06T22:02:53.525Z,8.50
2023-02-06T22:03:53.443Z,7.90
2023-02-06T22:04:53.460Z,8.80
2023-02-06T22:05:53.403Z,8.70
2023-02-06T22:06:53.396Z,9.00
2023-02-06T22:07:53.396Z,8.50
2023-02-06T22:08:53.443Z,9.10
2023-02-06T22:09:53.410Z,8.50
2023-02-06T22:10:53.378Z,8.30
2023-02-06T22:11:53.339Z,9.00
2023-02-06T22:12:53.386Z,9.40
2023-02-06T22:13:53.319Z,9.10
2023-02-06T22:14:53.317Z,8.90
2023-02-06T22:15:53.393Z,9.00
2023-02-06T22:16:53.327Z,8.30
2023-02-06T22:17:53.297Z,8.70
2023-02-06T22:18:53.278Z,8.80
2023-02-06T22:19:53.304Z,8.60
2023-02-06T22:20:53.279Z,8.60
2023-02-06T22:21:53.259Z,8.40
2023-02-06T22:22:53.240Z,9.00
2023-02-06T22:23:53.223Z,9.40
2023-02-06T22:24:53.251Z,9.00
2023-02-06T22:25:53.190Z,8.50
2023-02-06T22:26:53.192Z,9.40
2023-02-06T22:27:53.224Z,8.50
2023-02-06T22:28:53.189Z,8.70
2023-02-06T22:29:53.157Z,8.70
2023-02-06T22:30:53.205Z,8.20
2023-02-06T22:31:53.141Z,9.10
2023-02-06T22:32:53.136Z,8.80
2023-02-06T22:33:53.137Z,9.10
2023-02-06T22:34:53.094Z,8.60
2023-02-06T22:35:53.142Z,8.40
2023-02-06T22:36:53.164Z,7.70
2023-02-06T22:37:53.067Z,8.60
2023-02-06T22:38:53.042Z,8.70
2023-02-06T22:39:53.335Z,8.60
2023-02-06T22:40:53.028Z,9.10
2023-02-06T22:41:53.022Z,9.30
2023-02-06T22:42:53.023Z,8.70
2023-02-06T22:43:53.076Z,7.90
2023-02-06T22:44:53.029Z,8.70
2023-02-06T22:45:52.974Z,8.30
2023-02-06T22:46:52.987Z,9.50
2023-02-06T22:47:52.957Z,9.60
2023-02-06T22:48:52.939Z,9.20
2023-02-06T22:49:52.918Z,8.80
2023-02-06T22:50:52.927Z,9.00
2023-02-06T22:51:52.905Z,9.00
2023-02-06T22:52:52.992Z,9.10
2023-02-06T22:53:52.902Z,9.00
2023-02-06T22:54:52.900Z,8.90
2023-02-06T22:55:52.848Z,9.20
2023-02-06T22:56:52.858Z,9.00
2023-02-06T22:57:52.887Z,8.20
2023-02-06T22:58:52.827Z,8.80
2023-02-06T22:59:52.841Z,9.00
2023-02-06T23:00:52.828Z,8.50
2023-02-06T23:01:52.838Z,9.10
2023-02-06T23:02:52.788Z,9.10
2023-02-06T23:03:52.782Z,8.50
2023-02-06T23:04:52.769Z,9.50
2023-02-06T23:05:52.752Z,9.20
2023-02-06T23:06:52.742Z,8.80
2023-02-06T23:07:52.738Z,9.20
2023-02-06T23:08:52.742Z,9.00
2023-02-06T23:09:52.706Z,9.40
2023-02-06T23:10:52.724Z,8.30
2023-02-06T23:11:52.690Z,9.40
2023-02-06T23:12:52.754Z,9.80
2023-02-06T23:13:52.680Z,9.50
2023-02-06T23:14:52.770Z,9.10
2023-02-06T23:15:52.650Z,8.70
2023-02-06T23:16:52.684Z,8.60
2023-02-06T23:17:52.626Z,8.90
2023-02-06T23:18:52.633Z,10.10
2023-02-06T23:19:52.591Z,9.90
2023-02-06T23:20:52.593Z,9.10
2023-02-06T23:21:52.638Z,9.20
2023-02-06T23:22:52.617Z,9.40
2023-02-06T23:23:52.569Z,9.70
2023-02-06T23:24:52.547Z,9.10
2023-02-06T23:25:52.533Z,9.40
2023-02-06T23:26:52.533Z,9.40
2023-02-06T23:27:52.542Z,9.60
2023-02-06T23:28:52.540Z,9.10
2023-02-06T23:29:52.495Z,10.50
2023-02-06T23:30:52.534Z,9.80
2023-02-06T23:31:52.557Z,9.80
2023-02-06T23:32:52.493Z,9.50
2023-02-06T23:33:52.476Z,9.70
2023-02-06T23:34:52.485Z,10.20
2023-02-06T23:35:52.450Z,9.50
2023-02-06T23:36:52.425Z,9.70
2023-02-06T23:37:52.440Z,10.60
2023-02-06T23:38:52.414Z,16.00
2023-02-06T23:39:52.401Z,15.00
2023-02-06T23:40:52.381Z,10.30
2023-02-06T23:41:52.361Z,10.30
2023-02-06T23:42:52.346Z,10.60
2023-02-06T23:43:52.354Z,9.90
2023-02-06T23:44:52.348Z,10.30
2023-02-06T23:45:52.359Z,9.60
2023-02-06T23:46:52.320Z,9.60
2023-02-06T23:47:52.330Z,9.90
2023-02-06T23:48:52.306Z,10.30
2023-02-06T23:49:52.288Z,10.30
2023-02-06T23:50:52.271Z,10.20
2023-02-06T23:51:52.250Z,9.80
2023-02-06T23:52:52.248Z,10.70
2023-02-06T23:53:52.233Z,9.50
2023-02-06T23:54:52.220Z,9.60
2023-02-06T23:55:52.207Z,11.00
2023-02-06T23:56:52.223Z,10.60
2023-02-06T23:57:52.222Z,9.20
2023-02-06T23:58:52.188Z,10.40
2023-02-06T23:59:52.264Z,10.60
